sensor_id;sensor_type;location;lat;lon;timestamp;P1;durP1;ratioP1;P2;durP2;ratioP2
20318;SDS011;10317;47.254;11.314;2023-04-09T00:03:29;14.70;;;12.68;;
20318;SDS011;10317;47.254;11.314;2023-04-09T00:05:55;12.77;;;11.40;;
20318;SDS011;10317;47.254;11.314;2023-04-09T00:08:21;17.85;;;13.90;;
20318;SDS011;10317;47.254;11.314;2023-04-09T00:10:48;16.15;;;12.50;;
20318;SDS011;10317;47.254;11.314;2023-04-09T00:13:14;15.32;;;12.40;;
20318;SDS011;10317;47.254;11.314;2023-04-09T00:15:40;16.13;;;12.63;;
20318;SDS011;10317;47.254;11.314;2023-04-09T00:18:06;15.05;;;11.95;;
20318;SDS011;10317;47.254;11.314;2023-04-09T00:20:31;14.18;;;12.45;;
20318;SDS011;10317;47.254;11.314;2023-04-09T00:22:57;14.30;;;12.57;;
20318;SDS011;10317;47.254;11.314;2023-04-09T00:25:23;15.60;;;13.40;;
20318;SDS011;10317;47.254;11.314;2023-04-09T00:27:48;13.38;;;11.13;;
20318;SDS011;10317;47.254;11.314;2023-04-09T00:30:15;15.15;;;12.80;;
20318;SDS011;10317;47.254;11.314;2023-04-09T00:32:40;15.48;;;12.60;;
20318;SDS011;10317;47.254;11.314;2023-04-09T00:35:06;16.23;;;13.75;;
20318;SDS011;10317;47.254;11.314;2023-04-09T00:37:33;16.52;;;14.05;;
20318;SDS011;10317;47.254;11.314;2023-04-09T00:39:59;15.63;;;13.18;;
20318;SDS011;10317;47.254;11.314;2023-04-09T00:42:24;15.70;;;13.00;;
20318;SDS011;10317;47.254;11.314;2023-04-09T00:44:51;16.27;;;13.85;;
20318;SDS011;10317;47.254;11.314;2023-04-09T00:47:17;16.23;;;13.15;;
20318;SDS011;10317;47.254;11.314;2023-04-09T00:49:43;16.60;;;13.25;;
20318;SDS011;10317;47.254;11.314;2023-04-09T00:52:09;16.02;;;12.68;;
20318;SDS011;10317;47.254;11.314;2023-04-09T00:54:35;19.25;;;13.85;;
20318;SDS011;10317;47.254;11.314;2023-04-09T00:57:01;14.60;;;12.55;;
20318;SDS011;10317;47.254;11.314;2023-04-09T00:59:27;16.15;;;13.30;;
20318;SDS011;10317;47.254;11.314;2023-04-09T01:01:55;14.43;;;12.07;;
20318;SDS011;10317;47.254;11.314;2023-04-09T01:04:21;16.38;;;12.13;;
20318;SDS011;10317;47.254;11.314;2023-04-09T01:06:51;13.80;;;11.38;;
20318;SDS011;10317;47.254;11.314;2023-04-09T01:09:26;13.88;;;11.57;;
20318;SDS011;10317;47.254;11.314;2023-04-09T01:17:21;13.13;;;11.07;;
20318;SDS011;10317;47.254;11.314;2023-04-09T01:19:59;12.50;;;10.95;;
20318;SDS011;10317;47.254;11.314;2023-04-09T01:22:44;14.82;;;12.65;;
20318;SDS011;10317;47.254;11.314;2023-04-09T01:28:16;15.45;;;11.75;;
20318;SDS011;10317;47.254;11.314;2023-04-09T01:31:03;16.25;;;12.95;;
20318;SDS011;10317;47.254;11.314;2023-04-09T01:33:38;12.02;;;10.80;;
20318;SDS011;10317;47.254;11.314;2023-04-09T01:36:05;14.20;;;11.82;;
20318;SDS011;10317;47.254;11.314;2023-04-09T01:38:32;13.52;;;11.57;;
20318;SDS011;10317;47.254;11.314;2023-04-09T01:41:00;17.20;;;13.00;;
20318;SDS011;10317;47.254;11.314;2023-04-09T01:43:28;16.27;;;12.63;;
20318;SDS011;10317;47.254;11.314;2023-04-09T01:45:55;14.38;;;11.95;;
20318;SDS011;10317;47.254;11.314;2023-04-09T01:48:22;14.63;;;12.27;;
20318;SDS011;10317;47.254;11.314;2023-04-09T01:50:49;16.58;;;13.68;;
20318;SDS011;10317;47.254;11.314;2023-04-09T01:53:15;17.17;;;13.18;;
20318;SDS011;10317;47.254;11.314;2023-04-09T01:55:41;17.90;;;14.13;;
20318;SDS011;10317;47.254;11.314;2023-04-09T01:58:07;20.08;;;15.20;;
20318;SDS011;10317;47.254;11.314;2023-04-09T02:00:44;15.93;;;13.15;;
20318;SDS011;10317;47.254;11.314;2023-04-09T02:03:16;16.42;;;13.55;;
20318;SDS011;10317;47.254;11.314;2023-04-09T02:06:18;16.67;;;14.05;;
20318;SDS011;10317;47.254;11.314;2023-04-09T02:08:59;17.17;;;13.32;;
20318;SDS011;10317;47.254;11.314;2023-04-09T02:11:27;15.32;;;12.43;;
20318;SDS011;10317;47.254;11.314;2023-04-09T02:13:55;17.38;;;13.82;;
20318;SDS011;10317;47.254;11.314;2023-04-09T02:16:22;19.70;;;15.88;;
20318;SDS011;10317;47.254;11.314;2023-04-09T02:18:52;15.55;;;12.23;;
20318;SDS011;10317;47.254;11.314;2023-04-09T02:21:19;18.27;;;14.70;;
20318;SDS011;10317;47.254;11.314;2023-04-09T02:23:44;16.98;;;12.93;;
20318;SDS011;10317;47.254;11.314;2023-04-09T02:26:10;18.40;;;14.63;;
20318;SDS011;10317;47.254;11.314;2023-04-09T02:28:36;17.13;;;12.88;;
20318;SDS011;10317;47.254;11.314;2023-04-09T02:31:01;18.42;;;14.27;;
20318;SDS011;10317;47.254;11.314;2023-04-09T02:33:27;15.93;;;13.25;;
20318;SDS011;10317;47.254;11.314;2023-04-09T02:35:53;16.38;;;13.35;;
20318;SDS011;10317;47.254;11.314;2023-04-09T02:38:19;16.80;;;13.50;;
20318;SDS011;10317;47.254;11.314;2023-04-09T02:40:44;16.33;;;14.07;;
20318;SDS011;10317;47.254;11.314;2023-04-09T02:43:10;16.83;;;13.68;;
20318;SDS011;10317;47.254;11.314;2023-04-09T02:45:35;16.90;;;13.70;;
20318;SDS011;10317;47.254;11.314;2023-04-09T02:48:01;17.30;;;13.00;;
20318;SDS011;10317;47.254;11.314;2023-04-09T02:50:27;15.60;;;13.18;;
20318;SDS011;10317;47.254;11.314;2023-04-09T02:52:53;20.63;;;13.75;;
20318;SDS011;10317;47.254;11.314;2023-04-09T02:55:19;16.25;;;13.55;;
20318;SDS011;10317;47.254;11.314;2023-04-09T02:57:44;15.15;;;12.70;;
20318;SDS011;10317;47.254;11.314;2023-04-09T03:00:10;18.40;;;13.65;;
20318;SDS011;10317;47.254;11.314;2023-04-09T03:02:37;16.67;;;13.57;;
20318;SDS011;10317;47.254;11.314;2023-04-09T03:05:03;16.83;;;13.35;;
20318;SDS011;10317;47.254;11.314;2023-04-09T03:07:29;20.27;;;15.05;;
20318;SDS011;10317;47.254;11.314;2023-04-09T03:09:54;17.15;;;13.27;;
20318;SDS011;10317;47.254;11.314;2023-04-09T03:12:20;18.17;;;13.48;;
20318;SDS011;10317;47.254;11.314;2023-04-09T03:14:45;17.45;;;13.25;;
20318;SDS011;10317;47.254;11.314;2023-04-09T03:17:11;16.20;;;13.43;;
20318;SDS011;10317;47.254;11.314;2023-04-09T03:19:37;19.35;;;14.05;;
20318;SDS011;10317;47.254;11.314;2023-04-09T03:22:02;18.33;;;14.18;;
20318;SDS011;10317;47.254;11.314;2023-04-09T03:24:28;16.25;;;13.25;;
20318;SDS011;10317;47.254;11.314;2023-04-09T03:26:56;17.13;;;14.18;;
20318;SDS011;10317;47.254;11.314;2023-04-09T03:29:22;18.50;;;14.32;;
20318;SDS011;10317;47.254;11.314;2023-04-09T03:31:48;18.17;;;14.10;;
20318;SDS011;10317;47.254;11.314;2023-04-09T03:34:13;16.40;;;13.73;;
20318;SDS011;10317;47.254;11.314;2023-04-09T03:36:39;17.02;;;14.38;;
20318;SDS011;10317;47.254;11.314;2023-04-09T03:39:05;18.95;;;12.90;;
20318;SDS011;10317;47.254;11.314;2023-04-09T03:41:30;17.42;;;14.23;;
20318;SDS011;10317;47.254;11.314;2023-04-09T03:43:56;18.30;;;13.50;;
20318;SDS011;10317;47.254;11.314;2023-04-09T03:46:21;16.67;;;12.95;;
20318;SDS011;10317;47.254;11.314;2023-04-09T03:48:47;16.40;;;13.35;;
20318;SDS011;10317;47.254;11.314;2023-04-09T03:51:16;15.60;;;12.73;;
20318;SDS011;10317;47.254;11.314;2023-04-09T03:53:42;15.43;;;13.07;;
20318;SDS011;10317;47.254;11.314;2023-04-09T03:56:08;18.75;;;13.73;;
20318;SDS011;10317;47.254;11.314;2023-04-09T03:58:34;17.65;;;13.93;;
20318;SDS011;10317;47.254;11.314;2023-04-09T04:01:00;16.60;;;13.25;;
20318;SDS011;10317;47.254;11.314;2023-04-09T04:03:27;20.65;;;14.23;;
20318;SDS011;10317;47.254;11.314;2023-04-09T04:05:53;16.85;;;13.10;;
20318;SDS011;10317;47.254;11.314;2023-04-09T04:08:23;18.30;;;14.45;;
20318;SDS011;10317;47.254;11.314;2023-04-09T04:10:49;17.73;;;14.32;;
20318;SDS011;10317;47.254;11.314;2023-04-09T04:13:15;15.57;;;11.85;;
20318;SDS011;10317;47.254;11.314;2023-04-09T04:15:41;18.58;;;13.25;;
20318;SDS011;10317;47.254;11.314;2023-04-09T04:18:07;17.98;;;14.20;;
20318;SDS011;10317;47.254;11.314;2023-04-09T04:20:33;18.25;;;14.40;;
20318;SDS011;10317;47.254;11.314;2023-04-09T04:23:00;19.52;;;14.80;;
20318;SDS011;10317;47.254;11.314;2023-04-09T04:25:26;15.52;;;13.10;;
20318;SDS011;10317;47.254;11.314;2023-04-09T04:27:52;18.85;;;13.77;;
20318;SDS011;10317;47.254;11.314;2023-04-09T04:30:19;15.85;;;12.70;;
20318;SDS011;10317;47.254;11.314;2023-04-09T04:32:48;17.75;;;13.85;;
20318;SDS011;10317;47.254;11.314;2023-04-09T04:35:13;16.15;;;12.73;;
20318;SDS011;10317;47.254;11.314;2023-04-09T04:37:39;16.95;;;13.07;;
20318;SDS011;10317;47.254;11.314;2023-04-09T04:40:09;16.20;;;12.95;;
20318;SDS011;10317;47.254;11.314;2023-04-09T04:42:34;17.35;;;13.05;;
20318;SDS011;10317;47.254;11.314;2023-04-09T04:45:00;16.55;;;13.57;;
20318;SDS011;10317;47.254;11.314;2023-04-09T04:47:26;16.25;;;12.85;;
20318;SDS011;10317;47.254;11.314;2023-04-09T04:49:52;17.23;;;13.18;;
20318;SDS011;10317;47.254;11.314;2023-04-09T04:52:18;15.05;;;12.18;;
20318;SDS011;10317;47.254;11.314;2023-04-09T04:54:44;16.40;;;12.98;;
20318;SDS011;10317;47.254;11.314;2023-04-09T04:57:10;14.50;;;12.30;;
20318;SDS011;10317;47.254;11.314;2023-04-09T04:59:36;16.92;;;12.60;;
20318;SDS011;10317;47.254;11.314;2023-04-09T05:02:03;15.75;;;12.88;;
20318;SDS011;10317;47.254;11.314;2023-04-09T05:04:29;16.60;;;13.00;;
20318;SDS011;10317;47.254;11.314;2023-04-09T05:06:55;14.43;;;11.80;;
20318;SDS011;10317;47.254;11.314;2023-04-09T05:09:21;15.60;;;12.05;;
20318;SDS011;10317;47.254;11.314;2023-04-09T05:11:47;15.73;;;12.85;;
20318;SDS011;10317;47.254;11.314;2023-04-09T05:14:12;17.67;;;13.43;;
20318;SDS011;10317;47.254;11.314;2023-04-09T05:16:38;15.35;;;12.55;;
20318;SDS011;10317;47.254;11.314;2023-04-09T05:19:04;14.90;;;12.25;;
20318;SDS011;10317;47.254;11.314;2023-04-09T05:21:30;16.58;;;13.40;;
20318;SDS011;10317;47.254;11.314;2023-04-09T05:23:56;20.63;;;13.45;;
20318;SDS011;10317;47.254;11.314;2023-04-09T05:26:21;18.98;;;14.10;;
20318;SDS011;10317;47.254;11.314;2023-04-09T05:28:47;13.38;;;11.15;;
20318;SDS011;10317;47.254;11.314;2023-04-09T05:31:13;17.65;;;13.07;;
20318;SDS011;10317;47.254;11.314;2023-04-09T05:33:39;19.25;;;12.98;;
20318;SDS011;10317;47.254;11.314;2023-04-09T05:36:06;20.10;;;14.00;;
20318;SDS011;10317;47.254;11.314;2023-04-09T05:38:39;15.40;;;12.07;;
20318;SDS011;10317;47.254;11.314;2023-04-09T05:41:05;17.73;;;12.98;;
20318;SDS011;10317;47.254;11.314;2023-04-09T05:43:30;18.65;;;14.25;;
20318;SDS011;10317;47.254;11.314;2023-04-09T05:45:56;17.15;;;13.32;;
20318;SDS011;10317;47.254;11.314;2023-04-09T05:48:22;16.23;;;12.52;;
20318;SDS011;10317;47.254;11.314;2023-04-09T05:50:48;18.88;;;13.48;;
20318;SDS011;10317;47.254;11.314;2023-04-09T05:53:16;17.50;;;13.50;;
20318;SDS011;10317;47.254;11.314;2023-04-09T05:55:43;17.42;;;12.95;;
20318;SDS011;10317;47.254;11.314;2023-04-09T05:58:09;17.70;;;12.75;;
20318;SDS011;10317;47.254;11.314;2023-04-09T06:00:35;17.13;;;13.60;;
20318;SDS011;10317;47.254;11.314;2023-04-09T06:03:01;12.55;;;11.23;;
20318;SDS011;10317;47.254;11.314;2023-04-09T06:05:27;17.30;;;12.43;;
20318;SDS011;10317;47.254;11.314;2023-04-09T06:07:52;16.98;;;12.65;;
20318;SDS011;10317;47.254;11.314;2023-04-09T06:10:18;17.58;;;13.30;;
20318;SDS011;10317;47.254;11.314;2023-04-09T06:12:44;16.17;;;12.75;;
20318;SDS011;10317;47.254;11.314;2023-04-09T06:15:10;17.77;;;13.65;;
20318;SDS011;10317;47.254;11.314;2023-04-09T06:17:35;16.52;;;12.52;;
20318;SDS011;10317;47.254;11.314;2023-04-09T06:20:01;16.40;;;12.52;;
20318;SDS011;10317;47.254;11.314;2023-04-09T06:22:27;18.52;;;13.60;;
20318;SDS011;10317;47.254;11.314;2023-04-09T06:24:53;16.42;;;11.90;;
20318;SDS011;10317;47.254;11.314;2023-04-09T06:27:19;15.40;;;12.48;;
20318;SDS011;10317;47.254;11.314;2023-04-09T06:29:46;16.40;;;12.50;;
20318;SDS011;10317;47.254;11.314;2023-04-09T06:32:11;18.77;;;13.48;;
20318;SDS011;10317;47.254;11.314;2023-04-09T06:34:37;17.42;;;12.90;;
20318;SDS011;10317;47.254;11.314;2023-04-09T06:37:03;16.33;;;12.40;;
20318;SDS011;10317;47.254;11.314;2023-04-09T06:39:28;18.63;;;13.63;;
20318;SDS011;10317;47.254;11.314;2023-04-09T06:41:54;18.10;;;13.68;;
20318;SDS011;10317;47.254;11.314;2023-04-09T06:44:20;20.55;;;14.90;;
20318;SDS011;10317;47.254;11.314;2023-04-09T06:46:46;19.75;;;14.00;;
20318;SDS011;10317;47.254;11.314;2023-04-09T06:49:12;19.23;;;12.90;;
20318;SDS011;10317;47.254;11.314;2023-04-09T06:51:37;17.98;;;13.15;;
20318;SDS011;10317;47.254;11.314;2023-04-09T06:54:03;21.30;;;14.95;;
20318;SDS011;10317;47.254;11.314;2023-04-09T06:56:28;16.70;;;12.80;;
20318;SDS011;10317;47.254;11.314;2023-04-09T06:58:54;18.77;;;13.32;;
20318;SDS011;10317;47.254;11.314;2023-04-09T07:01:20;18.95;;;12.02;;
20318;SDS011;10317;47.254;11.314;2023-04-09T07:03:46;16.35;;;12.07;;
20318;SDS011;10317;47.254;11.314;2023-04-09T07:06:11;16.33;;;12.35;;
20318;SDS011;10317;47.254;11.314;2023-04-09T07:08:37;17.63;;;12.52;;
20318;SDS011;10317;47.254;11.314;2023-04-09T07:11:03;15.13;;;12.00;;
20318;SDS011;10317;47.254;11.314;2023-04-09T07:13:28;14.82;;;11.38;;
20318;SDS011;10317;47.254;11.314;2023-04-09T07:15:55;18.60;;;12.80;;
20318;SDS011;10317;47.254;11.314;2023-04-09T07:18:20;22.52;;;15.27;;
20318;SDS011;10317;47.254;11.314;2023-04-09T07:20:46;18.42;;;13.85;;
20318;SDS011;10317;47.254;11.314;2023-04-09T07:23:12;21.55;;;14.05;;
20318;SDS011;10317;47.254;11.314;2023-04-09T07:25:37;19.23;;;14.30;;
20318;SDS011;10317;47.254;11.314;2023-04-09T07:28:03;18.05;;;13.35;;
20318;SDS011;10317;47.254;11.314;2023-04-09T07:30:29;17.35;;;12.40;;
20318;SDS011;10317;47.254;11.314;2023-04-09T07:32:54;17.40;;;13.13;;
20318;SDS011;10317;47.254;11.314;2023-04-09T07:35:20;18.25;;;13.60;;
20318;SDS011;10317;47.254;11.314;2023-04-09T07:37:46;15.88;;;11.70;;
20318;SDS011;10317;47.254;11.314;2023-04-09T07:40:11;15.25;;;12.68;;
20318;SDS011;10317;47.254;11.314;2023-04-09T07:42:37;14.07;;;11.50;;
20318;SDS011;10317;47.254;11.314;2023-04-09T07:45:04;17.92;;;12.60;;
20318;SDS011;10317;47.254;11.314;2023-04-09T07:47:30;15.95;;;12.05;;
20318;SDS011;10317;47.254;11.314;2023-04-09T07:49:56;15.55;;;11.75;;
20318;SDS011;10317;47.254;11.314;2023-04-09T07:52:22;15.85;;;12.00;;
20318;SDS011;10317;47.254;11.314;2023-04-09T07:54:48;13.40;;;11.43;;
20318;SDS011;10317;47.254;11.314;2023-04-09T07:57:14;18.38;;;12.40;;
20318;SDS011;10317;47.254;11.314;2023-04-09T07:59:40;15.43;;;11.27;;
20318;SDS011;10317;47.254;11.314;2023-04-09T08:02:05;15.65;;;12.27;;
20318;SDS011;10317;47.254;11.314;2023-04-09T08:04:31;14.43;;;10.50;;
20318;SDS011;10317;47.254;11.314;2023-04-09T08:06:57;17.98;;;10.90;;
20318;SDS011;10317;47.254;11.314;2023-04-09T08:09:23;13.60;;;10.82;;
20318;SDS011;10317;47.254;11.314;2023-04-09T08:11:48;16.75;;;12.10;;
20318;SDS011;10317;47.254;11.314;2023-04-09T08:14:15;17.13;;;12.60;;
20318;SDS011;10317;47.254;11.314;2023-04-09T08:16:42;17.13;;;12.88;;
20318;SDS011;10317;47.254;11.314;2023-04-09T08:19:11;18.02;;;13.57;;
20318;SDS011;10317;47.254;11.314;2023-04-09T08:21:37;19.38;;;14.07;;
20318;SDS011;10317;47.254;11.314;2023-04-09T08:24:07;16.60;;;12.85;;
20318;SDS011;10317;47.254;11.314;2023-04-09T08:26:35;17.58;;;13.80;;
20318;SDS011;10317;47.254;11.314;2023-04-09T08:29:04;19.55;;;13.57;;
20318;SDS011;10317;47.254;11.314;2023-04-09T08:31:30;24.73;;;16.52;;
20318;SDS011;10317;47.254;11.314;2023-04-09T08:33:55;18.02;;;13.45;;
20318;SDS011;10317;47.254;11.314;2023-04-09T08:36:22;17.23;;;13.07;;
20318;SDS011;10317;47.254;11.314;2023-04-09T08:38:48;16.55;;;12.27;;
20318;SDS011;10317;47.254;11.314;2023-04-09T08:41:17;16.27;;;12.27;;
20318;SDS011;10317;47.254;11.314;2023-04-09T08:43:48;14.13;;;11.35;;
20318;SDS011;10317;47.254;11.314;2023-04-09T08:46:16;16.10;;;12.80;;
20318;SDS011;10317;47.254;11.314;2023-04-09T08:48:46;14.60;;;11.68;;
20318;SDS011;10317;47.254;11.314;2023-04-09T08:51:20;13.32;;;10.35;;
20318;SDS011;10317;47.254;11.314;2023-04-09T08:53:48;15.55;;;11.55;;
20318;SDS011;10317;47.254;11.314;2023-04-09T08:56:17;12.35;;;10.38;;
20318;SDS011;10317;47.254;11.314;2023-04-09T08:58:44;13.43;;;11.00;;
20318;SDS011;10317;47.254;11.314;2023-04-09T09:04:09;14.43;;;10.80;;
20318;SDS011;10317;47.254;11.314;2023-04-09T09:06:39;12.13;;;10.07;;
20318;SDS011;10317;47.254;11.314;2023-04-09T09:09:06;12.20;;;10.02;;
20318;SDS011;10317;47.254;11.314;2023-04-09T09:11:37;8.95;;;7.85;;
20318;SDS011;10317;47.254;11.314;2023-04-09T09:14:10;9.50;;;8.07;;
20318;SDS011;10317;47.254;11.314;2023-04-09T09:16:41;10.05;;;8.57;;
20318;SDS011;10317;47.254;11.314;2023-04-09T09:19:08;10.10;;;8.90;;
20318;SDS011;10317;47.254;11.314;2023-04-09T09:24:21;11.55;;;9.93;;
20318;SDS011;10317;47.254;11.314;2023-04-09T09:26:47;9.23;;;7.65;;
20318;SDS011;10317;47.254;11.314;2023-04-09T09:29:13;10.52;;;8.40;;
20318;SDS011;10317;47.254;11.314;2023-04-09T09:31:45;9.90;;;8.68;;
20318;SDS011;10317;47.254;11.314;2023-04-09T09:34:17;9.40;;;7.97;;
20318;SDS011;10317;47.254;11.314;2023-04-09T09:36:45;10.02;;;8.70;;
20318;SDS011;10317;47.254;11.314;2023-04-09T09:39:11;8.32;;;7.32;;
20318;SDS011;10317;47.254;11.314;2023-04-09T09:41:38;8.55;;;6.72;;
20318;SDS011;10317;47.254;11.314;2023-04-09T09:44:06;8.73;;;6.82;;
20318;SDS011;10317;47.254;11.314;2023-04-09T09:46:36;10.25;;;7.15;;
20318;SDS011;10317;47.254;11.314;2023-04-09T09:49:03;7.43;;;6.45;;
20318;SDS011;10317;47.254;11.314;2023-04-09T09:51:30;7.47;;;6.70;;
20318;SDS011;10317;47.254;11.314;2023-04-09T09:53:58;8.60;;;7.57;;
20318;SDS011;10317;47.254;11.314;2023-04-09T09:56:25;6.95;;;6.25;;
20318;SDS011;10317;47.254;11.314;2023-04-09T10:01:31;5.78;;;5.25;;
20318;SDS011;10317;47.254;11.314;2023-04-09T10:03:59;4.47;;;4.18;;
20318;SDS011;10317;47.254;11.314;2023-04-09T10:06:26;5.88;;;4.93;;
20318;SDS011;10317;47.254;11.314;2023-04-09T10:08:53;4.72;;;4.32;;
20318;SDS011;10317;47.254;11.314;2023-04-09T10:11:21;3.80;;;3.50;;
20318;SDS011;10317;47.254;11.314;2023-04-09T10:13:49;4.60;;;4.20;;
20318;SDS011;10317;47.254;11.314;2023-04-09T10:16:20;4.60;;;4.20;;
20318;SDS011;10317;47.254;11.314;2023-04-09T10:18:47;4.55;;;4.03;;
20318;SDS011;10317;47.254;11.314;2023-04-09T10:21:22;4.53;;;4.13;;
20318;SDS011;10317;47.254;11.314;2023-04-09T10:23:49;6.60;;;5.93;;
20318;SDS011;10317;47.254;11.314;2023-04-09T10:26:17;5.03;;;4.57;;
20318;SDS011;10317;47.254;11.314;2023-04-09T10:28:43;4.88;;;4.47;;
20318;SDS011;10317;47.254;11.314;2023-04-09T10:31:08;6.05;;;4.13;;
20318;SDS011;10317;47.254;11.314;2023-04-09T10:33:37;3.95;;;3.65;;
20318;SDS011;10317;47.254;11.314;2023-04-09T10:36:09;4.10;;;3.70;;
20318;SDS011;10317;47.254;11.314;2023-04-09T10:38:36;4.22;;;3.88;;
20318;SDS011;10317;47.254;11.314;2023-04-09T10:41:14;5.68;;;5.00;;
20318;SDS011;10317;47.254;11.314;2023-04-09T10:43:46;3.92;;;3.63;;
20318;SDS011;10317;47.254;11.314;2023-04-09T10:49:14;3.60;;;3.38;;
20318;SDS011;10317;47.254;11.314;2023-04-09T10:59:34;6.00;;;5.50;;
20318;SDS011;10317;47.254;11.314;2023-04-09T11:02:02;4.47;;;4.07;;
20318;SDS011;10317;47.254;11.314;2023-04-09T11:07:30;4.20;;;3.70;;
20318;SDS011;10317;47.254;11.314;2023-04-09T11:09:59;4.53;;;4.13;;
20318;SDS011;10317;47.254;11.314;2023-04-09T11:12:27;5.07;;;4.63;;
20318;SDS011;10317;47.254;11.314;2023-04-09T11:14:53;6.88;;;4.00;;
20318;SDS011;10317;47.254;11.314;2023-04-09T11:17:19;4.15;;;3.83;;
20318;SDS011;10317;47.254;11.314;2023-04-09T11:19:45;3.50;;;3.20;;
20318;SDS011;10317;47.254;11.314;2023-04-09T11:35:36;3.50;;;3.30;;
20318;SDS011;10317;47.254;11.314;2023-04-09T11:38:05;3.33;;;3.13;;
20318;SDS011;10317;47.254;11.314;2023-04-09T11:40:32;3.10;;;2.90;;
20318;SDS011;10317;47.254;11.314;2023-04-09T11:42:58;4.05;;;3.75;;
20318;SDS011;10317;47.254;11.314;2023-04-09T11:45:25;2.92;;;2.72;;
20318;SDS011;10317;47.254;11.314;2023-04-09T11:47:52;3.67;;;3.38;;
20318;SDS011;10317;47.254;11.314;2023-04-09T11:50:18;4.07;;;3.78;;
20318;SDS011;10317;47.254;11.314;2023-04-09T11:52:44;2.75;;;2.65;;
20318;SDS011;10317;47.254;11.314;2023-04-09T11:55:10;3.65;;;3.38;;
20318;SDS011;10317;47.254;11.314;2023-04-09T11:57:46;3.50;;;3.22;;
20318;SDS011;10317;47.254;11.314;2023-04-09T12:00:12;4.03;;;3.65;;
20318;SDS011;10317;47.254;11.314;2023-04-09T12:02:44;3.22;;;2.92;;
20318;SDS011;10317;47.254;11.314;2023-04-09T12:05:20;3.85;;;3.42;;
20318;SDS011;10317;47.254;11.314;2023-04-09T12:07:47;4.03;;;3.70;;
20318;SDS011;10317;47.254;11.314;2023-04-09T12:10:13;3.92;;;3.63;;
20318;SDS011;10317;47.254;11.314;2023-04-09T12:12:42;2.90;;;2.80;;
20318;SDS011;10317;47.254;11.314;2023-04-09T12:15:21;3.58;;;3.28;;
20318;SDS011;10317;47.254;11.314;2023-04-09T12:17:56;2.97;;;2.78;;
20318;SDS011;10317;47.254;11.314;2023-04-09T12:20:55;2.67;;;2.45;;
20318;SDS011;10317;47.254;11.314;2023-04-09T12:23:15;2.67;;;2.50;;
20318;SDS011;10317;47.254;11.314;2023-04-09T12:25:42;2.72;;;2.58;;
20318;SDS011;10317;47.254;11.314;2023-04-09T12:28:13;2.92;;;2.70;;
20318;SDS011;10317;47.254;11.314;2023-04-09T12:30:41;2.92;;;2.72;;
20318;SDS011;10317;47.254;11.314;2023-04-09T12:33:07;2.47;;;2.38;;
20318;SDS011;10317;47.254;11.314;2023-04-09T12:35:32;2.40;;;2.30;;
20318;SDS011;10317;47.254;11.314;2023-04-09T12:37:58;2.25;;;2.05;;
20318;SDS011;10317;47.254;11.314;2023-04-09T12:40:25;2.30;;;2.15;;
20318;SDS011;10317;47.254;11.314;2023-04-09T12:42:51;1.98;;;1.73;;
20318;SDS011;10317;47.254;11.314;2023-04-09T12:45:18;2.05;;;1.90;;
20318;SDS011;10317;47.254;11.314;2023-04-09T12:47:44;1.90;;;1.80;;
20318;SDS011;10317;47.254;11.314;2023-04-09T12:50:11;2.13;;;2.03;;
20318;SDS011;10317;47.254;11.314;2023-04-09T12:52:37;1.77;;;1.67;;
20318;SDS011;10317;47.254;11.314;2023-04-09T12:55:03;2.10;;;2.00;;
20318;SDS011;10317;47.254;11.314;2023-04-09T12:57:30;2.30;;;2.20;;
20318;SDS011;10317;47.254;11.314;2023-04-09T12:59:56;1.88;;;1.77;;
20318;SDS011;10317;47.254;11.314;2023-04-09T13:02:22;1.88;;;1.80;;
20318;SDS011;10317;47.254;11.314;2023-04-09T13:04:47;1.80;;;1.80;;
20318;SDS011;10317;47.254;11.314;2023-04-09T13:07:14;2.25;;;2.05;;
20318;SDS011;10317;47.254;11.314;2023-04-09T13:09:41;2.13;;;2.03;;
20318;SDS011;10317;47.254;11.314;2023-04-09T13:12:07;2.20;;;2.10;;
20318;SDS011;10317;47.254;11.314;2023-04-09T13:14:33;1.83;;;1.73;;
20318;SDS011;10317;47.254;11.314;2023-04-09T13:16:58;1.80;;;1.70;;
20318;SDS011;10317;47.254;11.314;2023-04-09T13:19:24;1.50;;;1.50;;
20318;SDS011;10317;47.254;11.314;2023-04-09T13:21:50;2.28;;;2.17;;
20318;SDS011;10317;47.254;11.314;2023-04-09T13:24:15;2.10;;;2.00;;
20318;SDS011;10317;47.254;11.314;2023-04-09T13:26:41;3.25;;;2.17;;
20318;SDS011;10317;47.254;11.314;2023-04-09T13:29:07;1.95;;;1.95;;
20318;SDS011;10317;47.254;11.314;2023-04-09T13:31:34;2.15;;;2.05;;
20318;SDS011;10317;47.254;11.314;2023-04-09T13:34:00;2.22;;;2.05;;
20318;SDS011;10317;47.254;11.314;2023-04-09T13:36:27;2.05;;;1.95;;
20318;SDS011;10317;47.254;11.314;2023-04-09T13:38:53;2.22;;;2.13;;
20318;SDS011;10317;47.254;11.314;2023-04-09T13:41:18;2.10;;;2.00;;
20318;SDS011;10317;47.254;11.314;2023-04-09T13:43:44;1.90;;;1.80;;
20318;SDS011;10317;47.254;11.314;2023-04-09T13:46:10;1.92;;;1.83;;
20318;SDS011;10317;47.254;11.314;2023-04-09T13:48:36;1.80;;;1.75;;
20318;SDS011;10317;47.254;11.314;2023-04-09T13:51:01;2.00;;;1.90;;
20318;SDS011;10317;47.254;11.314;2023-04-09T13:53:27;1.90;;;1.80;;
20318;SDS011;10317;47.254;11.314;2023-04-09T13:55:53;2.45;;;2.35;;
20318;SDS011;10317;47.254;11.314;2023-04-09T13:58:19;2.30;;;2.15;;
20318;SDS011;10317;47.254;11.314;2023-04-09T14:00:46;2.08;;;1.98;;
20318;SDS011;10317;47.254;11.314;2023-04-09T14:03:12;2.67;;;2.47;;
20318;SDS011;10317;47.254;11.314;2023-04-09T14:05:38;2.03;;;1.92;;
20318;SDS011;10317;47.254;11.314;2023-04-09T14:08:03;2.00;;;1.90;;
20318;SDS011;10317;47.254;11.314;2023-04-09T14:10:30;1.85;;;1.75;;
20318;SDS011;10317;47.254;11.314;2023-04-09T14:12:56;1.35;;;1.35;;
20318;SDS011;10317;47.254;11.314;2023-04-09T14:15:22;1.95;;;1.85;;
20318;SDS011;10317;47.254;11.314;2023-04-09T14:17:47;2.20;;;2.10;;
20318;SDS011;10317;47.254;11.314;2023-04-09T14:20:13;2.00;;;1.90;;
20318;SDS011;10317;47.254;11.314;2023-04-09T14:22:39;2.15;;;2.05;;
20318;SDS011;10317;47.254;11.314;2023-04-09T14:25:07;1.80;;;1.70;;
20318;SDS011;10317;47.254;11.314;2023-04-09T14:27:33;1.85;;;1.75;;
20318;SDS011;10317;47.254;11.314;2023-04-09T14:29:58;2.40;;;2.20;;
20318;SDS011;10317;47.254;11.314;2023-04-09T14:32:24;2.13;;;2.03;;
20318;SDS011;10317;47.254;11.314;2023-04-09T14:34:49;2.00;;;1.90;;
20318;SDS011;10317;47.254;11.314;2023-04-09T14:37:15;2.70;;;2.42;;
20318;SDS011;10317;47.254;11.314;2023-04-09T14:52:14;2.25;;;2.08;;
20318;SDS011;10317;47.254;11.314;2023-04-09T14:54:40;2.83;;;2.65;;
20318;SDS011;10317;47.254;11.314;2023-04-09T14:57:06;2.42;;;2.33;;
20318;SDS011;10317;47.254;11.314;2023-04-09T14:59:32;2.67;;;2.50;;
20318;SDS011;10317;47.254;11.314;2023-04-09T15:01:58;2.80;;;2.50;;
20318;SDS011;10317;47.254;11.314;2023-04-09T15:04:23;5.40;;;2.90;;
20318;SDS011;10317;47.254;11.314;2023-04-09T15:06:49;3.10;;;2.90;;
20318;SDS011;10317;47.254;11.314;2023-04-09T15:09:15;2.88;;;2.70;;
20318;SDS011;10317;47.254;11.314;2023-04-09T15:11:41;2.60;;;2.50;;
20318;SDS011;10317;47.254;11.314;2023-04-09T15:14:06;2.85;;;2.65;;
20318;SDS011;10317;47.254;11.314;2023-04-09T15:16:32;2.78;;;2.60;;